sensor_id;sensor_type;location;lat;lon;timestamp;pressure;altitude;pressure_sealevel;temperature;humidity
41945;BME280;63122;52.424;13.458;2023-04-09T00:09:20;102038.94;;;7.20;100.00
41945;BME280;63122;52.424;13.458;2023-04-09T00:11:33;102041.66;;;7.19;100.00
41945;BME280;63122;52.424;13.458;2023-04-09T00:14:18;102038.09;;;7.20;100.00
41945;BME280;63122;52.424;13.458;2023-04-09T00:16:22;102045.22;;;7.18;100.00
41945;BME280;63122;52.424;13.458;2023-04-09T00:18:20;102045.59;;;7.12;100.00
41945;BME280;63122;52.424;13.458;2023-04-09T00:20:15;102047.56;;;7.08;100.00
41945;BME280;63122;52.424;13.458;2023-04-09T00:22:13;102040.94;;;7.02;100.00
41945;BME280;63122;52.424;13.458;2023-04-09T00:24:09;102035.88;;;6.99;100.00
41945;BME280;63122;52.424;13.458;2023-04-09T00:26:06;102045.53;;;6.99;100.00
41945;BME280;63122;52.424;13.458;2023-04-09T00:28:02;102039.53;;;6.97;100.00
41945;BME280;63122;52.424;13.458;2023-04-09T00:29:57;102041.22;;;6.98;100.00
41945;BME280;63122;52.424;13.458;2023-04-09T00:31:52;102039.59;;;6.95;100.00
41945;BME280;63122;52.424;13.458;2023-04-09T00:33:48;102036.16;;;6.95;100.00
41945;BME280;63122;52.424;13.458;2023-04-09T00:35:43;102038.84;;;6.93;100.00
41945;BME280;63122;52.424;13.458;2023-04-09T00:37:41;102034.75;;;6.89;100.00
41945;BME280;63122;52.424;13.458;2023-04-09T00:39:37;102040.28;;;6.84;100.00
41945;BME280;63122;52.424;13.458;2023-04-09T00:41:32;102039.50;;;6.82;100.00
41945;BME280;63122;52.424;13.458;2023-04-09T00:43:27;102043.06;;;6.81;100.00
41945;BME280;63122;52.424;13.458;2023-04-09T00:45:23;102037.81;;;6.81;100.00
41945;BME280;63122;52.424;13.458;2023-04-09T00:47:19;102030.44;;;6.73;100.00
41945;BME280;63122;52.424;13.458;2023-04-09T00:49:14;102036.03;;;6.67;100.00
41945;BME280;63122;52.424;13.458;2023-04-09T00:51:10;102032.47;;;6.68;100.00
41945;BME280;63122;52.424;13.458;2023-04-09T00:53:09;102033.91;;;6.74;100.00
41945;BME280;63122;52.424;13.458;2023-04-09T00:55:07;102032.88;;;6.76;100.00
41945;BME280;63122;52.424;13.458;2023-04-09T00:57:04;102038.56;;;6.69;100.00
41945;BME280;63122;52.424;13.458;2023-04-09T00:58:59;102040.34;;;6.68;100.00
41945;BME280;63122;52.424;13.458;2023-04-09T01:00:55;102032.22;;;6.73;100.00
41945;BME280;63122;52.424;13.458;2023-04-09T01:02:50;102034.09;;;6.71;100.00
41945;BME280;63122;52.424;13.458;2023-04-09T01:04:46;102034.94;;;6.71;100.00
41945;BME280;63122;52.424;13.458;2023-04-09T01:06:44;102033.25;;;6.70;100.00
41945;BME280;63122;52.424;13.458;2023-04-09T01:08:50;102027.81;;;6.73;100.00
41945;BME280;63122;52.424;13.458;2023-04-09T01:10:55;102031.53;;;6.69;100.00
41945;BME280;63122;52.424;13.458;2023-04-09T01:13:03;102035.59;;;6.60;100.00
41945;BME280;63122;52.424;13.458;2023-04-09T01:15:04;102033.31;;;6.54;100.00
41945;BME280;63122;52.424;13.458;2023-04-09T01:17:04;102032.94;;;6.46;100.00
41945;BME280;63122;52.424;13.458;2023-04-09T01:19:09;102027.38;;;6.36;100.00
41945;BME280;63122;52.424;13.458;2023-04-09T01:21:13;102031.97;;;6.32;100.00
41945;BME280;63122;52.424;13.458;2023-04-09T01:23:17;102030.09;;;6.34;100.00
41945;BME280;63122;52.424;13.458;2023-04-09T01:25:28;102032.91;;;6.31;100.00
41945;BME280;63122;52.424;13.458;2023-04-09T01:27:36;102032.59;;;6.22;100.00
41945;BME280;63122;52.424;13.458;2023-04-09T01:29:38;102032.97;;;6.15;100.00
41945;BME280;63122;52.424;13.458;2023-04-09T01:31:37;102040.69;;;6.02;100.00
41945;BME280;63122;52.424;13.458;2023-04-09T01:33:35;102026.28;;;6.10;100.00
41945;BME280;63122;52.424;13.458;2023-04-09T01:35:32;102032.09;;;6.15;100.00
41945;BME280;63122;52.424;13.458;2023-04-09T01:37:27;102031.94;;;6.18;100.00
41945;BME280;63122;52.424;13.458;2023-04-09T01:39:23;102036.34;;;6.17;100.00
41945;BME280;63122;52.424;13.458;2023-04-09T01:41:20;102040.72;;;6.17;100.00
41945;BME280;63122;52.424;13.458;2023-04-09T01:43:17;102038.22;;;6.15;100.00
41945;BME280;63122;52.424;13.458;2023-04-09T01:45:16;102034.72;;;6.15;100.00
41945;BME280;63122;52.424;13.458;2023-04-09T01:47:12;102034.81;;;6.13;100.00
41945;BME280;63122;52.424;13.458;2023-04-09T01:49:09;102042.00;;;6.10;100.00
41945;BME280;63122;52.424;13.458;2023-04-09T01:51:05;102041.34;;;6.06;100.00
41945;BME280;63122;52.424;13.458;2023-04-09T01:53:01;102045.63;;;6.07;100.00
41945;BME280;63122;52.424;13.458;2023-04-09T01:54:57;102029.84;;;6.09;100.00
41945;BME280;63122;52.424;13.458;2023-04-09T01:56:52;102033.22;;;6.11;100.00
41945;BME280;63122;52.424;13.458;2023-04-09T01:58:48;102042.94;;;6.09;100.00
41945;BME280;63122;52.424;13.458;2023-04-09T02:00:47;102033.97;;;6.13;100.00
41945;BME280;63122;52.424;13.458;2023-04-09T02:02:47;102049.69;;;6.13;100.00
41945;BME280;63122;52.424;13.458;2023-04-09T02:04:45;102046.41;;;6.09;100.00
41945;BME280;63122;52.424;13.458;2023-04-09T02:06:46;102046.56;;;6.06;100.00
41945;BME280;63122;52.424;13.458;2023-04-09T02:08:43;102043.03;;;6.07;100.00
41945;BME280;63122;52.424;13.458;2023-04-09T02:10:42;102050.06;;;6.07;100.00
41945;BME280;63122;52.424;13.458;2023-04-09T02:12:48;102046.75;;;6.03;100.00
41945;BME280;63122;52.424;13.458;2023-04-09T02:14:45;102048.00;;;5.96;100.00
41945;BME280;63122;52.424;13.458;2023-04-09T02:16:45;102038.72;;;5.90;100.00
41945;BME280;63122;52.424;13.458;2023-04-09T02:18:41;102048.78;;;5.82;100.00
41945;BME280;63122;52.424;13.458;2023-04-09T02:20:36;102039.59;;;5.74;100.00
41945;BME280;63122;52.424;13.458;2023-04-09T02:22:32;102042.72;;;5.65;100.00
41945;BME280;63122;52.424;13.458;2023-04-09T02:24:27;102038.69;;;5.59;100.00
41945;BME280;63122;52.424;13.458;2023-04-09T02:26:22;102045.09;;;5.70;100.00
41945;BME280;63122;52.424;13.458;2023-04-09T02:28:17;102036.31;;;5.71;100.00
41945;BME280;63122;52.424;13.458;2023-04-09T02:30:13;102045.91;;;5.70;100.00
41945;BME280;63122;52.424;13.458;2023-04-09T02:32:11;102045.25;;;5.67;100.00
41945;BME280;63122;52.424;13.458;2023-04-09T02:34:06;102043.56;;;5.66;100.00
41945;BME280;63122;52.424;13.458;2023-04-09T02:36:02;102049.63;;;5.66;100.00
41945;BME280;63122;52.424;13.458;2023-04-09T02:37:57;102047.47;;;5.58;100.00
41945;BME280;63122;52.424;13.458;2023-04-09T02:39:53;102046.84;;;5.53;100.00
41945;BME280;63122;52.424;13.458;2023-04-09T02:41:48;102045.25;;;5.51;100.00
41945;BME280;63122;52.424;13.458;2023-04-09T02:43:43;102043.81;;;5.45;100.00
41945;BME280;63122;52.424;13.458;2023-04-09T02:45:39;102047.53;;;5.41;100.00
41945;BME280;63122;52.424;13.458;2023-04-09T02:47:36;102040.78;;;5.37;100.00
41945;BME280;63122;52.424;13.458;2023-04-09T02:49:32;102043.22;;;5.40;100.00
41945;BME280;63122;52.424;13.458;2023-04-09T02:51:27;102036.38;;;5.37;100.00
41945;BME280;63122;52.424;13.458;2023-04-09T02:53:23;102035.03;;;5.30;100.00
41945;BME280;63122;52.424;13.458;2023-04-09T02:55:19;102034.63;;;5.22;100.00
41945;BME280;63122;52.424;13.458;2023-04-09T02:57:15;102040.00;;;5.18;100.00
41945;BME280;63122;52.424;13.458;2023-04-09T02:59:10;102039.16;;;5.18;100.00
41945;BME280;63122;52.424;13.458;2023-04-09T03:01:05;102033.16;;;5.16;100.00
41945;BME280;63122;52.424;13.458;2023-04-09T03:03:03;102037.53;;;5.15;100.00
41945;BME280;63122;52.424;13.458;2023-04-09T03:04:59;102037.47;;;5.17;100.00
41945;BME280;63122;52.424;13.458;2023-04-09T03:06:54;102038.47;;;5.14;100.00
41945;BME280;63122;52.424;13.458;2023-04-09T03:08:49;102039.22;;;5.16;100.00
41945;BME280;63122;52.424;13.458;2023-04-09T03:10:45;102029.56;;;5.18;100.00
41945;BME280;63122;52.424;13.458;2023-04-09T03:12:43;102028.53;;;5.21;100.00
41945;BME280;63122;52.424;13.458;2023-04-09T03:14:39;102024.97;;;5.22;100.00
41945;BME280;63122;52.424;13.458;2023-04-09T03:16:34;102030.03;;;5.25;100.00
41945;BME280;63122;52.424;13.458;2023-04-09T03:19:27;102024.75;;;5.27;100.00
41945;BME280;63122;52.424;13.458;2023-04-09T03:21:43;102026.31;;;5.29;100.00
41945;BME280;63122;52.424;13.458;2023-04-09T03:24:01;102021.25;;;5.26;100.00
41945;BME280;63122;52.424;13.458;2023-04-09T03:27:24;102023.13;;;5.24;100.00
41945;BME280;63122;52.424;13.458;2023-04-09T03:29:54;102019.00;;;5.20;100.00
41945;BME280;63122;52.424;13.458;2023-04-09T03:32:19;102015.94;;;5.12;100.00
41945;BME280;63122;52.424;13.458;2023-04-09T03:34:53;102015.59;;;5.02;100.00
41945;BME280;63122;52.424;13.458;2023-04-09T03:36:54;102019.38;;;4.96;100.00
41945;BME280;63122;52.424;13.458;2023-04-09T03:39:00;102012.38;;;4.97;100.00
41945;BME280;63122;52.424;13.458;2023-04-09T03:41:19;102015.75;;;4.99;100.00
41945;BME280;63122;52.424;13.458;2023-04-09T03:43:34;102018.44;;;4.97;100.00
41945;BME280;63122;52.424;13.458;2023-04-09T03:45:29;102018.53;;;4.96;100.00
41945;BME280;63122;52.424;13.458;2023-04-09T03:47:25;102020.22;;;4.97;100.00
41945;BME280;63122;52.424;13.458;2023-04-09T03:49:20;102020.81;;;5.02;100.00
41945;BME280;63122;52.424;13.458;2023-04-09T03:51:18;102024.19;;;5.04;100.00
41945;BME280;63122;52.424;13.458;2023-04-09T03:53:14;102018.13;;;5.03;100.00
41945;BME280;63122;52.424;13.458;2023-04-09T03:55:09;102018.03;;;5.05;100.00
41945;BME280;63122;52.424;13.458;2023-04-09T03:57:05;102022.44;;;5.04;100.00
41945;BME280;63122;52.424;13.458;2023-04-09T03:59:00;102018.38;;;4.99;100.00
41945;BME280;63122;52.424;13.458;2023-04-09T04:00:55;102019.97;;;5.01;100.00
41945;BME280;63122;52.424;13.458;2023-04-09T04:02:51;102025.13;;;5.03;100.00
41945;BME280;63122;52.424;13.458;2023-04-09T04:04:46;102016.75;;;4.96;100.00
41945;BME280;63122;52.424;13.458;2023-04-09T04:06:45;102025.78;;;4.90;100.00
41945;BME280;63122;52.424;13.458;2023-04-09T04:08:40;102022.25;;;4.92;100.00
41945;BME280;63122;52.424;13.458;2023-04-09T04:10:36;102023.09;;;4.92;100.00
41945;BME280;63122;52.424;13.458;2023-04-09T04:12:31;102017.09;;;4.90;100.00
41945;BME280;63122;52.424;13.458;2023-04-09T04:14:27;102022.47;;;4.87;100.00
41945;BME280;63122;52.424;13.458;2023-04-09T04:16:22;102023.47;;;4.84;100.00
41945;BME280;63122;52.424;13.458;2023-04-09T04:18:18;102021.88;;;4.82;100.00
41945;BME280;63122;52.424;13.458;2023-04-09T04:20:13;102022.06;;;4.79;100.00
41945;BME280;63122;52.424;13.458;2023-04-09T04:22:15;102023.81;;;4.78;100.00
41945;BME280;63122;52.424;13.458;2023-04-09T04:24:27;102026.25;;;4.81;100.00
41945;BME280;63122;52.424;13.458;2023-04-09T04:26:59;102024.66;;;4.79;100.00
41945;BME280;63122;52.424;13.458;2023-04-09T04:29:07;102035.94;;;4.79;100.00
41945;BME280;63122;52.424;13.458;2023-04-09T04:31:23;102030.13;;;4.74;100.00
41945;BME280;63122;52.424;13.458;2023-04-09T04:33:19;102033.72;;;4.71;100.00
41945;BME280;63122;52.424;13.458;2023-04-09T04:35:25;102032.03;;;4.70;100.00
41945;BME280;63122;52.424;13.458;2023-04-09T04:37:24;102032.13;;;4.69;100.00
41945;BME280;63122;52.424;13.458;2023-04-09T04:39:32;102038.28;;;4.68;100.00
41945;BME280;63122;52.424;13.458;2023-04-09T04:42:01;102052.28;;;4.67;100.00
41945;BME280;63122;52.424;13.458;2023-04-09T04:44:24;102055.81;;;4.66;100.00
41945;BME280;63122;52.424;13.458;2023-04-09T04:46:21;102053.28;;;4.64;100.00
41945;BME280;63122;52.424;13.458;2023-04-09T04:48:18;102060.41;;;4.60;100.00
41945;BME280;63122;52.424;13.458;2023-04-09T04:50:22;102061.22;;;4.45;100.00
41945;BME280;63122;52.424;13.458;2023-04-09T04:52:20;102058.97;;;4.37;100.00
41945;BME280;63122;52.424;13.458;2023-04-09T04:54:23;102059.84;;;4.38;100.00
41945;BME280;63122;52.424;13.458;2023-04-09T04:56:26;102061.59;;;4.37;100.00
41945;BME280;63122;52.424;13.458;2023-04-09T04:58:26;102067.59;;;4.39;100.00
41945;BME280;63122;52.424;13.458;2023-04-09T05:00:26;102066.81;;;4.37;100.00
41945;BME280;63122;52.424;13.458;2023-04-09T05:02:22;102067.97;;;4.31;100.00
41945;BME280;63122;52.424;13.458;2023-04-09T05:04:23;102071.50;;;4.30;100.00
41945;BME280;63122;52.424;13.458;2023-04-09T05:06:20;102081.03;;;4.31;100.00
41945;BME280;63122;52.424;13.458;2023-04-09T05:08:22;102095.25;;;4.26;100.00
41945;BME280;63122;52.424;13.458;2023-04-09T05:10:20;102084.25;;;4.19;100.00
41945;BME280;63122;52.424;13.458;2023-04-09T05:12:17;102080.50;;;4.25;100.00
41945;BME280;63122;52.424;13.458;2023-04-09T05:14:19;102080.56;;;4.23;100.00
41945;BME280;63122;52.424;13.458;2023-04-09T05:16:16;102079.47;;;4.27;100.00
41945;BME280;63122;52.424;13.458;2023-04-09T05:18:13;102086.41;;;4.28;100.00
41945;BME280;63122;52.424;13.458;2023-04-09T05:20:12;102090.50;;;4.34;100.00
41945;BME280;63122;52.424;13.458;2023-04-09T05:22:07;102084.19;;;4.38;100.00
41945;BME280;63122;52.424;13.458;2023-04-09T05:24:08;102090.19;;;4.40;100.00
41945;BME280;63122;52.424;13.458;2023-04-09T05:26:09;102084.78;;;4.43;100.00
41945;BME280;63122;52.424;13.458;2023-04-09T05:28:07;102084.88;;;4.42;100.00
41945;BME280;63122;52.424;13.458;2023-04-09T05:30:04;102083.34;;;4.38;100.00
41945;BME280;63122;52.424;13.458;2023-04-09T05:32:00;102093.03;;;4.36;100.00
41945;BME280;63122;52.424;13.458;2023-04-09T05:33:58;102091.25;;;4.36;100.00
41945;BME280;63122;52.424;13.458;2023-04-09T05:35:53;102091.19;;;4.38;100.00
41945;BME280;63122;52.424;13.458;2023-04-09T05:37:49;102094.56;;;4.40;100.00
41945;BME280;63122;52.424;13.458;2023-04-09T05:39:46;102095.25;;;4.43;100.00
41945;BME280;63122;52.424;13.458;2023-04-09T05:41:46;102093.41;;;4.45;100.00
41945;BME280;63122;52.424;13.458;2023-04-09T05:43:46;102090.66;;;4.49;100.00
41945;BME280;63122;52.424;13.458;2023-04-09T05:45:45;102092.25;;;4.51;100.00
41945;BME280;63122;52.424;13.458;2023-04-09T05:47:44;102089.50;;;4.54;100.00
41945;BME280;63122;52.424;13.458;2023-04-09T05:49:43;102085.88;;;4.57;100.00
41945;BME280;63122;52.424;13.458;2023-04-09T05:51:39;102088.66;;;4.54;100.00
41945;BME280;63122;52.424;13.458;2023-04-09T05:53:35;102087.63;;;4.56;100.00
41945;BME280;63122;52.424;13.458;2023-04-09T05:55:31;102087.41;;;4.61;100.00
41945;BME280;63122;52.424;13.458;2023-04-09T05:57:29;102090.91;;;4.61;100.00
41945;BME280;63122;52.424;13.458;2023-04-09T05:59:25;102088.19;;;4.63;100.00
41945;BME280;63122;52.424;13.458;2023-04-09T06:01:20;102086.56;;;4.60;100.00
41945;BME280;63122;52.424;13.458;2023-04-09T06:03:16;102075.66;;;4.52;100.00
41945;BME280;63122;52.424;13.458;2023-04-09T06:05:11;102083.88;;;4.44;100.00
41945;BME280;63122;52.424;13.458;2023-04-09T06:07:07;102074.44;;;4.42;100.00
41945;BME280;63122;52.424;13.458;2023-04-09T06:09:02;102076.66;;;4.32;100.00
41945;BME280;63122;52.424;13.458;2023-04-09T06:10:58;102075.34;;;4.23;100.00
41945;BME280;63122;52.424;13.458;2023-04-09T06:12:57;102084.31;;;4.17;100.00
41945;BME280;63122;52.424;13.458;2023-04-09T06:14:52;102082.56;;;4.18;100.00
41945;BME280;63122;52.424;13.458;2023-04-09T06:16:47;102086.91;;;4.17;100.00
41945;BME280;63122;52.424;13.458;2023-04-09T06:18:43;102088.84;;;4.14;100.00
41945;BME280;63122;52.424;13.458;2023-04-09T06:20:43;102088.50;;;4.22;100.00
41945;BME280;63122;52.424;13.458;2023-04-09T06:22:38;102095.00;;;4.30;100.00
41945;BME280;63122;52.424;13.458;2023-04-09T06:24:33;102094.94;;;4.32;100.00
41945;BME280;63122;52.424;13.458;2023-04-09T06:26:29;102095.94;;;4.29;100.00
41945;BME280;63122;52.424;13.458;2023-04-09T06:28:27;102094.41;;;4.25;100.00
41945;BME280;63122;52.424;13.458;2023-04-09T06:30:23;102093.56;;;4.25;100.00
41945;BME280;63122;52.424;13.458;2023-04-09T06:32:18;102096.94;;;4.27;100.00
41945;BME280;63122;52.424;13.458;2023-04-09T06:34:14;102097.72;;;4.29;100.00
41945;BME280;63122;52.424;13.458;2023-04-09T06:36:09;102099.41;;;4.30;100.00
41945;BME280;63122;52.424;13.458;2023-04-09T06:38:05;102101.16;;;4.29;100.00
41945;BME280;63122;52.424;13.458;2023-04-09T06:40:01;102102.03;;;4.30;100.00
41945;BME280;63122;52.424;13.458;2023-04-09T06:42:01;102103.72;;;4.31;100.00
41945;BME280;63122;52.424;13.458;2023-04-09T06:44:00;102096.69;;;4.31;100.00
41945;BME280;63122;52.424;13.458;2023-04-09T06:45:55;102104.69;;;4.28;100.00
41945;BME280;63122;52.424;13.458;2023-04-09T06:47:53;102103.41;;;4.37;100.00
41945;BME280;63122;52.424;13.458;2023-04-09T06:49:48;102105.25;;;4.35;100.00
41945;BME280;63122;52.424;13.458;2023-04-09T06:51:44;102105.03;;;4.40;100.00
41945;BME280;63122;52.424;13.458;2023-04-09T06:53:39;102105.84;;;4.40;100.00
41945;BME280;63122;52.424;13.458;2023-04-09T06:55:35;102107.38;;;4.44;100.00
41945;BME280;63122;52.424;13.458;2023-04-09T06:57:30;102110.25;;;4.40;100.00
41945;BME280;63122;52.424;13.458;2023-04-09T06:59:28;102102.31;;;4.41;100.00
41945;BME280;63122;52.424;13.458;2023-04-09T07:01:25;102106.97;;;4.54;100.00
41945;BME280;63122;52.424;13.458;2023-04-09T07:03:21;102114.94;;;4.51;100.00
41945;BME280;63122;52.424;13.458;2023-04-09T07:05:21;102112.19;;;4.54;100.00
41945;BME280;63122;52.424;13.458;2023-04-09T07:07:16;102115.78;;;4.51;100.00
41945;BME280;63122;52.424;13.458;2023-04-09T07:09:17;102107.47;;;4.60;100.00
41945;BME280;63122;52.424;13.458;2023-04-09T07:11:12;102107.78;;;4.72;100.00
41945;BME280;63122;52.424;13.458;2023-04-09T07:13:17;102109.94;;;4.81;100.00
41945;BME280;63122;52.424;13.458;2023-04-09T07:15:15;102109.72;;;4.86;100.00
41945;BME280;63122;52.424;13.458;2023-04-09T07:17:11;102117.94;;;4.96;100.00
41945;BME280;63122;52.424;13.458;2023-04-09T07:19:08;102123.81;;;4.99;100.00
41945;BME280;63122;52.424;13.458;2023-04-09T07:21:04;102125.44;;;5.02;100.00
41945;BME280;63122;52.424;13.458;2023-04-09T07:22:59;102125.22;;;5.07;100.00
41945;BME280;63122;52.424;13.458;2023-04-09T07:24:55;102129.28;;;5.12;100.00
41945;BME280;63122;52.424;13.458;2023-04-09T07:26:51;102123.28;;;5.10;100.00
41945;BME280;63122;52.424;13.458;2023-04-09T07:28:47;102118.75;;;5.14;100.00
41945;BME280;63122;52.424;13.458;2023-04-09T07:30:45;102122.19;;;5.14;100.00
41945;BME280;63122;52.424;13.458;2023-04-09T07:32:42;102116.66;;;5.21;100.00
41945;BME280;63122;52.424;13.458;2023-04-09T07:34:38;102119.00;;;5.25;100.00
41945;BME280;63122;52.424;13.458;2023-04-09T07:36:34;102118.72;;;5.31;100.00
41945;BME280;63122;52.424;13.458;2023-04-09T07:38:29;102120.88;;;5.39;100.00
41945;BME280;63122;52.424;13.458;2023-04-09T07:40:26;102120.31;;;5.50;100.00
41945;BME280;63122;52.424;13.458;2023-04-09T07:42:21;102121.78;;;5.56;100.00
41945;BME280;63122;52.424;13.458;2023-04-09T07:44:17;102125.09;;;5.59;100.00
41945;BME280;63122;52.424;13.458;2023-04-09T07:46:19;102119.69;;;5.62;100.00
41945;BME280;63122;52.424;13.458;2023-04-09T07:48:16;102120.03;;;5.72;100.00
41945;BME280;63122;52.424;13.458;2023-04-09T07:50:11;102116.97;;;5.80;100.00
41945;BME280;63122;52.424;13.458;2023-04-09T07:52:07;102115.59;;;5.89;100.00
41945;BME280;63122;52.424;13.458;2023-04-09T07:54:02;102118.06;;;5.92;100.00
41945;BME280;63122;52.424;13.458;2023-04-09T07:55:58;102112.34;;;6.01;100.00
41945;BME280;63122;52.424;13.458;2023-04-09T07:57:54;102110.31;;;6.07;100.00
41945;BME280;63122;52.424;13.458;2023-04-09T07:59:51;102104.03;;;6.09;100.00
41945;BME280;63122;52.424;13.458;2023-04-09T08:01:52;102105.66;;;6.12;100.00
41945;BME280;63122;52.424;13.458;2023-04-09T08:03:48;102107.88;;;6.03;100.00
41945;BME280;63122;52.424;13.458;2023-04-09T08:05:43;102103.28;;;6.07;100.00
41945;BME280;63122;52.424;13.458;2023-04-09T08:07:39;102113.25;;;6.16;100.00
41945;BME280;63122;52.424;13.458;2023-04-09T08:09:34;102114.50;;;6.25;100.00
41945;BME280;63122;52.424;13.458;2023-04-09T08:11:30;102117.00;;;6.43;100.00
41945;BME280;63122;52.424;13.458;2023-04-09T08:13:25;102117.50;;;6.50;100.00
41945;BME280;63122;52.424;13.458;2023-04-09T08:15:21;102109.94;;;6.59;100.00
41945;BME280;63122;52.424;13.458;2023-04-09T08:17:19;102118.94;;;6.70;100.00
41945;BME280;63122;52.424;13.458;2023-04-09T08:19:16;102128.69;;;6.82;100.00
41945;BME280;63122;52.424;13.458;2023-04-09T08:21:11;102123.66;;;6.94;100.00
41945;BME280;63122;52.424;13.458;2023-04-09T08:23:07;102124.03;;;7.02;100.00
41945;BME280;63122;52.424;13.458;2023-04-09T08:25:33;102129.78;;;7.09;100.00
41945;BME280;63122;52.424;13.458;2023-04-09T08:27:29;102123.31;;;7.14;100.00
41945;BME280;63122;52.424;13.458;2023-04-09T08:29:26;102126.41;;;7.35;100.00
41945;BME280;63122;52.424;13.458;2023-04-09T08:31:25;102129.41;;;7.29;100.00
41945;BME280;63122;52.424;13.458;2023-04-09T08:33:24;102137.38;;;7.28;100.00
41945;BME280;63122;52.424;13.458;2023-04-09T08:35:20;102135.03;;;7.38;100.00
41945;BME280;63122;52.424;13.458;2023-04-09T08:37:15;102126.50;;;7.48;100.00
41945;BME280;63122;52.424;13.458;2023-04-09T08:39:11;102132.75;;;7.60;100.00
41945;BME280;63122;52.424;13.458;2023-04-09T08:41:06;102125.19;;;7.41;100.00
41945;BME280;63122;52.424;13.458;2023-04-09T08:43:04;102130.34;;;7.43;100.00
41945;BME280;63122;52.424;13.458;2023-04-09T08:45:02;102128.56;;;7.43;100.00
41945;BME280;63122;52.424;13.458;2023-04-09T08:46:58;102134.53;;;7.60;100.00
41945;BME280;63122;52.424;13.458;2023-04-09T08:48:56;102122.41;;;7.72;100.00
41945;BME280;63122;52.424;13.458;2023-04-09T08:50:52;102125.66;;;7.90;100.00
41945;BME280;63122;52.424;13.458;2023-04-09T08:52:47;102126.50;;;7.90;100.00
41945;BME280;63122;52.424;13.458;2023-04-09T08:54:43;102122.34;;;8.01;100.00
41945;BME280;63122;52.424;13.458;2023-04-09T08:56:39;102122.09;;;8.18;100.00
41945;BME280;63122;52.424;13.458;2023-04-09T08:58:34;102126.13;;;8.37;100.00
41945;BME280;63122;52.424;13.458;2023-04-09T09:00:30;102115.84;;;8.47;100.00
41945;BME280;63122;52.424;13.458;2023-04-09T09:02:25;102121.50;;;8.55;100.00
41945;BME280;63122;52.424;13.458;2023-04-09T09:04:42;102111.94;;;8.67;100.00
41945;BME280;63122;52.424;13.458;2023-04-09T09:06:40;102115.91;;;8.60;100.00
41945;BME280;63122;52.424;13.458;2023-04-09T09:08:36;102116.25;;;8.68;100.00
41945;BME280;63122;52.424;13.458;2023-04-09T09:10:36;102115.31;;;8.82;100.00
41945;BME280;63122;52.424;13.458;2023-04-09T09:12:36;102119.91;;;8.66;100.00
41945;BME280;63122;52.424;13.458;2023-04-09T09:14:33;102114.22;;;8.72;100.00
41945;BME280;63122;52.424;13.458;2023-04-09T09:16:28;102113.41;;;8.84;100.00
41945;BME280;63122;52.424;13.458;2023-04-09T09:18:37;102106.78;;;8.78;100.00
41945;BME280;63122;52.424;13.458;2023-04-09T09:20:35;102110.88;;;8.96;100.00
41945;BME280;63122;52.424;13.458;2023-04-09T09:22:47;102108.97;;;9.11;100.00
41945;BME280;63122;52.424;13.458;2023-04-09T09:24:47;102107.59;;;9.18;100.00
41945;BME280;63122;52.424;13.458;2023-04-09T09:26:45;102109.59;;;9.40;100.00
41945;BME280;63122;52.424;13.458;2023-04-09T09:28:40;102106.31;;;9.36;100.00
41945;BME280;63122;52.424;13.458;2023-04-09T09:30:36;102104.81;;;9.45;100.00
41945;BME280;63122;52.424;13.458;2023-04-09T09:32:33;102108.03;;;9.62;100.00
41945;BME280;63122;52.424;13.458;2023-04-09T09:34:28;102105.81;;;9.69;100.00
41945;BME280;63122;52.424;13.458;2023-04-09T09:36:36;102105.16;;;9.78;100.00
41945;BME280;63122;52.424;13.458;2023-04-09T09:38:31;102105.72;;;9.94;100.00
41945;BME280;63122;52.424;13.458;2023-04-09T09:40:27;102098.59;;;10.08;100.00
41945;BME280;63122;52.424;13.458;2023-04-09T09:42:22;102097.97;;;10.04;100.00
41945;BME280;63122;52.424;13.458;2023-04-09T09:44:30;102095.91;;;10.21;100.00
41945;BME280;63122;52.424;13.458;2023-04-09T09:46:26;102089.28;;;10.15;100.00
41945;BME280;63122;52.424;13.458;2023-04-09T09:48:25;102090.13;;;10.40;100.00
41945;BME280;63122;52.424;13.458;2023-04-09T09:50:22;102088.00;;;10.21;100.00
41945;BME280;63122;52.424;13.458;2023-04-09T09:52:31;102090.19;;;10.38;100.00
41945;BME280;63122;52.424;13.458;2023-04-09T09:54:30;102087.06;;;10.69;100.00
41945;BME280;63122;52.424;13.458;2023-04-09T09:56:34;102088.41;;;10.75;100.00
41945;BME280;63122;52.424;13.458;2023-04-09T09:58:36;102090.53;;;10.70;100.00
41945;BME280;63122;52.424;13.458;2023-04-09T10:00:36;102080.13;;;10.91;100.00
41945;BME280;63122;52.424;13.458;2023-04-09T10:02:43;102084.56;;;10.90;100.00
41945;BME280;63122;52.424;13.458;2023-04-09T10:05:09;102078.94;;;11.18;100.00
41945;BME280;63122;52.424;13.458;2023-04-09T10:07:06;102090.22;;;11.20;100.00
41945;BME280;63122;52.424;13.458;2023-04-09T10:09:05;102085.19;;;11.17;100.00
41945;BME280;63122;52.424;13.458;2023-04-09T10:11:04;102081.81;;;11.03;100.00
41945;BME280;63122;52.424;13.458;2023-04-09T10:13:01;102083.47;;;10.82;100.00
41945;BME280;63122;52.424;13.458;2023-04-09T10:15:01;102075.69;;;10.91;100.00
41945;BME280;63122;52.424;13.458;2023-04-09T10:17:03;102076.41;;;10.82;100.00
41945;BME280;63122;52.424;13.458;2023-04-09T10:19:00;102081.09;;;10.90;100.00
41945;BME280;63122;52.424;13.458;2023-04-09T10:20:59;102084.06;;;10.97;100.00
41945;BME280;63122;52.424;13.458;2023-04-09T10:23:02;102084.09;;;11.19;100.00
41945;BME280;63122;52.424;13.458;2023-04-09T10:25:06;102084.50;;;11.70;100.00